Time;durP1;ratioP1;P1;durP2;ratioP2;P2;SDS_P1;SDS_P2;PMS_P1;PMS_P2;Temp;Humidity;BMP_temperature;BMP_pressure;BME280_temperature;BME280_humidity;BME280_pressure;Samples;Min_cycle;Max_cycle;Signal;HPM_P1;HPM_P2
2021/05/10 00:00:08;;;;;;;8.13;5.25;;;;;;;7.64;60.34;97230.42;1873091;76;25678;-78
2021/05/10 00:02:46;;;;;;;7.75;5.03;;;;;;;7.66;60.42;97220.83;1873055;76;25916;-78
2021/05/10 00:05:25;;;;;;;8.08;5.25;;;;;;;7.62;60.38;97222.23;1854950;76;25628;-78
2021/05/10 00:08:04;;;;;;;7.40;4.50;;;;;;;7.68;60.29;97220.13;1849079;76;25561;-78
2021/05/10 00:10:43;;;;;;;8.50;4.70;;;;;;;7.70;60.42;97214.04;1830839;76;25713;-79
2021/05/10 00:13:23;;;;;;;19.95;8.20;;;;;;;7.73;60.50;97212.31;1817216;76;26074;-79
2021/05/10 00:16:01;;;;;;;16.37;6.75;;;;;;;7.61;60.49;97209.86;1872936;76;25655;-79
2021/05/10 00:18:39;;;;;;;10.45;5.72;;;;;;;7.51;60.67;97207.50;1817524;76;25646;-79
2021/05/10 00:21:17;;;;;;;17.23;7.47;;;;;;;7.49;60.83;97216.27;1873177;76;26081;-78
2021/05/10 00:23:55;;;;;;;12.15;5.67;;;;;;;7.46;60.88;97206.77;1824149;76;25739;-78
2021/05/10 00:26:34;;;;;;;9.53;5.00;;;;;;;7.48;61.08;97210.60;1856530;76;25854;-78
2021/05/10 00:29:17;;;;;;;15.53;7.12;;;;;;;7.42;60.99;97214.05;1834666;76;25849;-80
2021/05/10 00:31:52;;;;;;;7.62;4.97;;;;;;;7.47;61.09;97215.66;1872356;76;26252;-78
2021/05/10 00:34:31;;;;;;;8.08;4.90;;;;;;;7.43;61.09;97209.84;1873136;76;25665;-80
2021/05/10 00:37:09;;;;;;;7.62;4.60;;;;;;;7.37;60.87;97209.27;1868851;76;25613;-79
2021/05/10 00:39:47;;;;;;;9.45;4.20;;;;;;;7.43;61.12;97211.18;1886624;76;25647;-77
2021/05/10 00:42:26;;;;;;;14.07;6.53;;;;;;;7.41;61.23;97217.25;1866469;74;25664;-80
2021/05/10 00:45:07;;;;;;;9.35;4.67;;;;;;;7.34;61.29;97216.39;1844916;76;25816;-79
2021/05/10 00:47:45;;;;;;;8.38;4.37;;;;;;;7.21;61.37;97206.38;1822518;76;25722;-77
2021/05/10 00:50:24;;;;;;;8.25;4.50;;;;;;;7.26;61.44;97204.95;1857286;75;25636;-78
2021/05/10 00:53:03;;;;;;;13.13;5.97;;;;;;;7.24;61.50;97204.63;1873029;76;25691;-80
2021/05/10 00:55:42;;;;;;;8.08;5.37;;;;;;;7.27;61.57;97194.02;1834738;76;26289;-79
2021/05/10 00:58:20;;;;;;;7.92;4.65;;;;;;;7.23;61.64;97200.82;1842994;76;26103;-78
2021/05/10 01:00:59;;;;;;;10.53;5.70;;;;;;;7.19;61.68;97194.17;1814352;76;25722;-79
2021/05/10 01:03:47;;;;;;;11.93;5.17;;;;;;;7.15;61.71;97195.58;1819776;78;25695;-77
2021/05/10 01:06:26;;;;;;;12.35;4.95;;;;;;;7.07;61.75;97189.85;1873026;76;25587;-78
2021/05/10 01:09:06;;;;;;;7.50;4.53;;;;;;;7.01;61.87;97185.75;1879796;74;25623;-77
2021/05/10 01:11:43;;;;;;;7.33;4.00;;;;;;;6.98;62.00;97188.85;1857148;76;25877;-79
2021/05/10 01:14:21;;;;;;;7.42;4.30;;;;;;;6.96;62.01;97194.41;1873140;76;25521;-77
2021/05/10 01:16:59;;;;;;;6.33;4.35;;;;;;;6.95;62.03;97183.86;1841592;76;25759;-79
2021/05/10 01:19:37;;;;;;;10.23;4.87;;;;;;;6.94;61.99;97191.08;1872340;76;25374;-80
2021/05/10 01:22:17;;;;;;;9.08;5.33;;;;;;;6.93;62.10;97189.93;1873171;75;25683;-79
2021/05/10 01:24:56;;;;;;;8.55;4.70;;;;;;;6.90;62.20;97194.33;1815165;76;25679;-78
2021/05/10 01:27:35;;;;;;;7.78;4.72;;;;;;;6.86;62.25;97188.03;1839791;75;25629;-80
2021/05/10 01:30:23;;;;;;;10.80;5.67;;;;;;;6.85;62.32;97182.86;1873018;76;25722;-78
2021/05/10 01:33:04;;;;;;;10.15;5.65;;;;;;;6.84;62.41;97183.88;1873034;76;25602;-79
2021/05/10 01:35:46;;;;;;;13.78;6.62;;;;;;;6.82;62.37;97172.51;1873051;76;25653;-78
2021/05/10 01:38:25;;;;;;;17.00;7.97;;;;;;;6.82;62.44;97172.00;1844355;76;25623;-80
2021/05/10 01:41:03;;;;;;;16.97;8.93;;;;;;;6.82;62.42;97176.02;1849131;76;26308;-78
2021/05/10 01:43:41;;;;;;;23.60;10.50;;;;;;;6.74;62.44;97184.21;1835408;76;25574;-78
2021/05/10 01:46:19;;;;;;;17.05;9.15;;;;;;;6.71;62.55;97180.56;1873202;76;25797;-80
2021/05/10 01:48:57;;;;;;;18.62;10.53;;;;;;;6.66;62.69;97182.98;1809174;76;25657;-80
2021/05/10 01:51:36;;;;;;;24.35;12.37;;;;;;;6.61;62.72;97188.62;1830071;77;25606;-80
2021/05/10 01:54:14;;;;;;;16.70;9.68;;;;;;;6.56;62.70;97189.69;1849923;76;25694;-78
2021/05/10 01:56:51;;;;;;;16.25;9.50;;;;;;;6.53;62.89;97188.72;1837679;76;25280;-78
2021/05/10 01:59:30;;;;;;;17.48;10.10;;;;;;;6.48;63.01;97196.02;1853385;75;25564;-78
2021/05/10 02:02:09;;;;;;;13.32;9.40;;;;;;;6.44;63.11;97192.05;1825392;76;25762;-78
2021/05/10 02:05:14;;;;;;;16.57;11.05;;;;;;;6.41;63.18;97192.42;1817040;76;25616;-80
2021/05/10 02:07:56;;;;;;;20.05;12.82;;;;;;;6.32;63.35;97185.52;1814253;76;25690;-80
2021/05/10 02:10:41;;;;;;;24.92;15.58;;;;;;;6.29;63.41;97191.26;1872941;76;25791;-80
2021/05/10 02:13:23;;;;;;;74.55;33.23;;;;;;;6.24;63.58;97192.36;1817343;76;25625;-78
2021/05/10 02:16:02;;;;;;;31.42;19.82;;;;;;;6.06;63.63;97192.25;1837014;76;25772;-80
2021/05/10 02:18:41;;;;;;;28.83;18.35;;;;;;;6.01;63.86;97190.66;1873015;76;25687;-79
2021/05/10 02:21:21;;;;;;;37.05;23.22;;;;;;;6.00;63.90;97193.02;1872764;76;25588;-78
2021/05/10 02:23:59;;;;;;;22.98;13.75;;;;;;;5.99;63.92;97193.20;1873069;76;25680;-78
2021/05/10 02:26:37;;;;;;;14.30;9.60;;;;;;;5.98;63.94;97195.05;1867767;76;25641;-78
2021/05/10 02:29:16;;;;;;;24.07;13.10;;;;;;;5.96;64.10;97197.08;1873127;76;30169;-78
2021/05/10 02:31:53;;;;;;;37.53;20.08;;;;;;;5.89;64.13;97206.06;1863560;76;25744;-79
2021/05/10 02:34:31;;;;;;;36.48;20.20;;;;;;;5.87;64.30;97208.89;1873106;76;25628;-79
2021/05/10 02:37:12;;;;;;;35.38;19.75;;;;;;;5.86;64.43;97201.86;1873071;76;25621;-79
2021/05/10 02:39:50;;;;;;;39.40;21.77;;;;;;;5.84;64.48;97198.54;1872985;76;25682;-78
2021/05/10 02:42:28;;;;;;;27.70;15.90;;;;;;;5.82;64.53;97202.41;1873055;76;25263;-78
2021/05/10 02:45:09;;;;;;;31.70;18.95;;;;;;;5.79;64.61;97203.64;1873096;76;25597;-78
2021/05/10 02:47:49;;;;;;;33.63;15.55;;;;;;;5.73;64.59;97211.06;1873145;76;25873;-78
2021/05/10 02:50:28;;;;;;;15.70;8.00;;;;;;;5.69;64.61;97208.42;1867266;76;25706;-80
2021/05/10 02:53:07;;;;;;;11.53;5.78;;;;;;;5.68;64.70;97207.59;1882389;76;25837;-80
2021/05/10 02:55:45;;;;;;;11.75;5.85;;;;;;;5.67;64.73;97215.33;1820560;76;26154;-80
2021/05/10 02:58:24;;;;;;;12.13;5.78;;;;;;;5.66;64.87;97215.52;1873161;75;25605;-78
2021/05/10 03:01:02;;;;;;;14.78;6.60;;;;;;;5.65;64.91;97213.34;1848832;75;25816;-80
2021/05/10 03:03:41;;;;;;;13.95;6.17;;;;;;;5.65;64.92;97212.51;1873095;76;25667;-79
2021/05/10 03:06:19;;;;;;;16.85;8.50;;;;;;;5.63;64.94;97210.02;1873095;76;25654;-77
2021/05/10 03:08:56;;;;;;;15.72;6.33;;;;;;;5.64;65.02;97221.05;1871410;76;25617;-79
2021/05/10 03:11:42;;;;;;;9.18;5.58;;;;;;;5.64;65.04;97213.52;1845032;77;25571;-77
2021/05/10 03:14:20;;;;;;;19.35;8.73;;;;;;;5.64;65.23;97217.03;1864033;76;25436;-79
2021/05/10 03:16:59;;;;;;;18.60;8.15;;;;;;;5.51;65.39;97218.18;1873124;75;25697;-77
2021/05/10 03:19:38;;;;;;;20.43;7.65;;;;;;;5.41;65.62;97214.95;1873104;76;25682;-77
2021/05/10 03:22:16;;;;;;;11.43;6.00;;;;;;;5.34;65.83;97216.17;1857852;76;25621;-79
2021/05/10 03:24:54;;;;;;;9.63;4.92;;;;;;;5.32;65.89;97207.48;1872702;76;25612;-79
2021/05/10 03:27:39;;;;;;;8.93;5.40;;;;;;;5.40;65.99;97214.12;1848767;76;25795;-79
2021/05/10 03:30:24;;;;;;;16.17;5.17;;;;;;;5.43;65.85;97215.06;1872986;76;25696;-77
2021/05/10 03:33:02;;;;;;;17.48;7.20;;;;;;;5.48;65.91;97215.03;1810867;76;25686;-77
2021/05/10 03:35:40;;;;;;;17.15;6.80;;;;;;;5.50;65.84;97209.83;1838800;76;25666;-77
2021/05/10 03:38:19;;;;;;;22.55;7.75;;;;;;;5.53;65.81;97209.97;1873013;76;25700;-79
2021/05/10 03:40:58;;;;;;;20.02;8.08;;;;;;;5.58;65.84;97212.40;1872926;76;25579;-77
2021/05/10 03:43:36;;;;;;;16.48;7.12;;;;;;;5.62;65.88;97212.88;1862814;76;25693;-79
2021/05/10 03:46:14;;;;;;;16.75;8.08;;;;;;;5.62;65.97;97210.20;1849172;76;25606;-79
2021/05/10 03:48:53;;;;;;;16.48;7.60;;;;;;;5.60;65.97;97209.03;1873033;76;25565;-78
2021/05/10 03:51:32;;;;;;;19.15;7.95;;;;;;;5.61;65.95;97209.87;1873134;76;25691;-77
2021/05/10 03:54:11;;;;;;;25.25;12.03;;;;;;;5.62;65.97;97215.55;1878500;74;25615;-77
2021/05/10 03:56:49;;;;;;;36.42;16.55;;;;;;;5.65;66.08;97224.56;1873038;76;25733;-77
2021/05/10 03:59:27;;;;;;;30.02;16.25;;;;;;;5.69;66.09;97218.63;1869965;76;25592;-79
2021/05/10 04:02:05;;;;;;;27.50;14.70;;;;;;;5.73;66.24;97218.59;1872998;75;25676;-77
2021/05/10 04:04:47;;;;;;;17.10;7.95;;;;;;;5.78;66.25;97215.38;1834502;76;25617;-77
2021/05/10 04:07:37;;;;;;;15.00;7.12;;;;;;;5.85;66.21;97207.41;1871116;76;25652;-77
2021/05/10 04:13:37;;;;;;;13.37;7.17;;;;;;;5.98;66.21;97218.33;1833089;76;31909;-77
2021/05/10 04:16:16;;;;;;;17.52;7.25;;;;;;;6.14;65.62;97213.59;1872972;75;25653;-79
2021/05/10 04:18:55;;;;;;;31.57;10.88;;;;;;;6.18;65.98;97206.49;1873101;76;25682;-77
2021/05/10 04:21:34;;;;;;;25.25;10.58;;;;;;;6.23;66.07;97209.45;1843855;76;25624;-78
2021/05/10 04:24:13;;;;;;;17.73;7.35;;;;;;;6.30;66.22;97214.37;1873087;76;26180;-78
2021/05/10 04:26:51;;;;;;;14.47;5.80;;;;;;;6.38;66.27;97222.31;1873249;76;25662;-79
2021/05/10 04:29:29;;;;;;;19.70;9.35;;;;;;;6.45;66.13;97211.14;1817496;76;25645;-77
2021/05/10 04:32:08;;;;;;;16.77;6.75;;;;;;;6.51;66.00;97206.38;1879671;76;25237;-78
2021/05/10 04:34:48;;;;;;;14.35;7.47;;;;;;;6.59;66.01;97216.13;1878512;74;25680;-78
2021/05/10 04:37:27;;;;;;;20.10;8.40;;;;;;;6.64;65.93;97206.48;1864747;76;25807;-78
2021/05/10 04:40:07;;;;;;;11.83;6.53;;;;;;;6.70;66.01;97209.75;1849170;76;25569;-78
2021/05/10 04:42:45;;;;;;;20.12;7.67;;;;;;;6.73;66.03;97201.33;1880027;74;25577;-80
2021/05/10 04:45:24;;;;;;;17.55;7.25;;;;;;;6.79;65.95;97209.94;1869825;76;25222;-78
2021/05/10 04:48:05;;;;;;;20.55;7.78;;;;;;;6.83;66.13;97214.41;1819465;75;25854;-80
2021/05/10 04:50:43;;;;;;;33.73;10.40;;;;;;;6.85;66.10;97211.03;1864200;76;25602;-80
2021/05/10 04:53:21;;;;;;;30.23;10.18;;;;;;;6.88;65.98;97212.80;1846397;76;25639;-78
2021/05/10 04:55:59;;;;;;;30.23;10.82;;;;;;;6.93;66.00;97210.05;1839278;76;25714;-78
2021/05/10 04:58:37;;;;;;;26.25;9.18;;;;;;;6.98;65.98;97208.47;1817147;76;25220;-78
2021/05/10 05:01:16;;;;;;;25.97;9.90;;;;;;;7.06;66.09;97211.52;1873109;76;25686;-77
2021/05/10 05:03:54;;;;;;;21.37;9.83;;;;;;;7.15;66.16;97215.20;1869782;76;25624;-80
2021/05/10 05:06:32;;;;;;;29.05;9.53;;;;;;;7.24;66.11;97215.91;1873123;76;25677;-77
2021/05/10 05:09:10;;;;;;;19.52;8.20;;;;;;;7.35;66.09;97214.02;1886672;76;25627;-79
2021/05/10 05:11:48;;;;;;;20.57;8.00;;;;;;;7.48;65.99;97214.13;1872003;76;25853;-79
2021/05/10 05:14:26;;;;;;;12.25;5.87;;;;;;;7.59;66.01;97217.60;1867761;76;25798;-80
2021/05/10 05:17:04;;;;;;;8.83;4.97;;;;;;;7.80;65.84;97209.96;1870179;76;25736;-80
2021/05/10 05:19:42;;;;;;;11.33;5.20;;;;;;;7.86;65.88;97206.98;1873315;76;25674;-80
2021/05/10 05:22:21;;;;;;;13.50;5.40;;;;;;;8.02;65.92;97192.38;1863359;76;25778;-78
2021/05/10 05:24:58;;;;;;;11.38;6.05;;;;;;;8.14;65.69;97196.98;1873162;76;25534;-80
2021/05/10 05:27:38;;;;;;;16.02;6.65;;;;;;;8.28;65.57;97189.80;1873022;76;25504;-78
2021/05/10 05:30:17;;;;;;;10.40;5.40;;;;;;;8.44;65.49;97191.34;1873080;76;25771;-78
2021/05/10 05:32:55;;;;;;;7.87;4.40;;;;;;;8.60;65.44;97196.31;1849157;76;25605;-78
2021/05/10 05:35:33;;;;;;;11.15;5.03;;;;;;;8.81;65.36;97186.75;1817486;76;25570;-78
2021/05/10 05:38:12;;;;;;;10.70;5.40;;;;;;;8.98;65.08;97183.95;1822835;76;25702;-78
2021/05/10 05:40:51;;;;;;;17.10;7.17;;;;;;;9.16;64.83;97175.78;1872991;76;25644;-80
2021/05/10 05:43:29;;;;;;;13.15;5.35;;;;;;;9.34;64.73;97178.66;1819729;76;25226;-80
2021/05/10 05:46:13;;;;;;;12.65;4.72;;;;;;;9.51;64.48;97181.75;1870910;76;25645;-80
2021/05/10 05:48:48;;;;;;;8.25;4.85;;;;;;;9.67;63.86;97169.16;1849131;76;25640;-78
2021/05/10 05:51:27;;;;;;;4.85;3.25;;;;;;;9.85;63.60;97183.32;1827993;76;25657;-80
2021/05/10 05:54:07;;;;;;;18.80;7.03;;;;;;;10.00;63.44;97182.03;1848900;76;25617;-81
2021/05/10 05:56:45;;;;;;;9.18;5.28;;;;;;;10.14;63.00;97181.47;1824443;76;25316;-80
2021/05/10 05:59:23;;;;;;;9.90;4.85;;;;;;;10.32;62.62;97168.12;1873095;76;25989;-78
2021/05/10 06:02:01;;;;;;;7.35;3.65;;;;;;;10.51;62.68;97176.30;1821344;76;25272;-79
2021/05/10 06:04:40;;;;;;;4.05;3.08;;;;;;;10.67;61.89;97165.83;1883243;74;25611;-78
2021/05/10 06:07:18;;;;;;;5.58;2.87;;;;;;;10.90;61.47;97166.61;1835327;76;25634;-78
2021/05/10 06:09:56;;;;;;;12.13;4.25;;;;;;;11.14;61.35;97159.56;1849098;76;25736;-80
2021/05/10 06:12:44;;;;;;;3.75;2.75;;;;;;;11.33;60.72;97153.70;1851699;76;25569;-78
2021/05/10 06:15:23;;;;;;;8.85;3.75;;;;;;;11.53;60.18;97162.43;1873085;76;25657;-78
2021/05/10 06:18:02;;;;;;;11.73;3.70;;;;;;;11.71;60.06;97163.78;1872965;76;25706;-78
2021/05/10 06:20:42;;;;;;;9.60;3.50;;;;;;;11.90;59.85;97158.73;1873116;76;25245;-78
2021/05/10 06:23:21;;;;;;;7.97;4.12;;;;;;;12.06;59.76;97154.61;1862905;76;25668;-79
2021/05/10 06:26:01;;;;;;;4.35;3.25;;;;;;;12.23;59.65;97154.80;1886551;76;25647;-81
2021/05/10 06:28:39;;;;;;;6.37;3.33;;;;;;;12.40;59.74;97150.41;1882231;74;25660;-81
2021/05/10 06:31:18;;;;;;;7.15;3.52;;;;;;;12.55;59.63;97153.55;1835036;76;25621;-79
2021/05/10 06:33:56;;;;;;;7.25;4.00;;;;;;;12.67;59.29;97141.40;1873128;76;25269;-79
2021/05/10 06:36:34;;;;;;;10.05;3.40;;;;;;;12.85;58.63;97141.84;1852563;76;25713;-81
2021/05/10 06:39:13;;;;;;;11.83;3.52;;;;;;;13.07;58.07;97140.23;1825241;76;26098;-81
2021/05/10 06:41:52;;;;;;;9.08;3.10;;;;;;;13.28;58.11;97134.27;1873063;76;25668;-79
2021/05/10 06:44:30;;;;;;;6.97;3.52;;;;;;;13.47;57.78;97137.70;1821997;76;25291;-81
2021/05/10 06:47:09;;;;;;;8.63;3.60;;;;;;;13.66;57.34;97142.45;1863087;75;25612;-81
2021/05/10 06:49:48;;;;;;;7.20;3.35;;;;;;;13.85;56.73;97134.49;1873118;76;25688;-79
2021/05/10 06:52:27;;;;;;;5.92;2.15;;;;;;;14.02;55.93;97132.67;1817076;76;25703;-81
2021/05/10 06:55:06;;;;;;;5.20;1.80;;;;;;;14.17;54.28;97128.63;1849050;76;25712;-80
2021/05/10 06:57:45;;;;;;;4.33;2.00;;;;;;;14.33;53.39;97130.59;1873062;76;26499;-79
2021/05/10 07:00:23;;;;;;;5.28;2.25;;;;;;;14.50;52.92;97129.30;1820046;76;25643;-81
2021/05/10 07:03:02;;;;;;;4.03;1.85;;;;;;;14.67;52.28;97126.92;1882751;74;25627;-81
2021/05/10 07:05:40;;;;;;;4.47;1.80;;;;;;;14.87;51.75;97124.27;1886499;74;25316;-81
2021/05/10 07:08:19;;;;;;;4.78;2.30;;;;;;;15.07;50.83;97120.56;1873134;76;25259;-79
2021/05/10 07:10:57;;;;;;;3.47;2.47;;;;;;;15.26;49.99;97120.59;1845094;76;25641;-80
2021/05/10 07:13:36;;;;;;;3.70;1.98;;;;;;;15.42;49.60;97115.68;1863979;76;25625;-79
2021/05/10 07:16:15;;;;;;;3.12;1.45;;;;;;;15.57;49.38;97121.09;1873055;76;25731;-79
2021/05/10 07:18:55;;;;;;;5.00;2.10;;;;;;;15.72;48.88;97117.21;1872966;76;25672;-80
2021/05/10 07:21:33;;;;;;;2.98;1.60;;;;;;;15.92;48.34;97120.77;1837871;76;25691;-79
2021/05/10 07:24:11;;;;;;;2.90;1.90;;;;;;;16.11;48.08;97120.73;1873068;76;25652;-80
2021/05/10 07:26:50;;;;;;;5.15;1.92;;;;;;;16.27;47.66;97115.77;1871344;76;25571;-80
2021/05/10 07:29:29;;;;;;;1.98;1.55;;;;;;;16.40;47.36;97115.91;1872474;76;25727;-80
2021/05/10 07:32:07;;;;;;;2.42;1.80;;;;;;;16.56;47.36;97106.27;1873550;76;25668;-79
2021/05/10 07:34:45;;;;;;;4.87;2.00;;;;;;;16.88;46.71;97106.91;1813611;76;25823;-80
2021/05/10 07:37:24;;;;;;;4.65;1.70;;;;;;;17.33;46.32;97106.45;1848879;76;25577;-80
2021/05/10 07:40:05;;;;;;;2.83;1.60;;;;;;;17.85;45.80;97103.84;1863323;76;25613;-80
2021/05/10 07:42:44;;;;;;;2.20;1.77;;;;;;;18.39;44.63;97104.05;1873055;76;25256;-81
2021/05/10 07:45:23;;;;;;;2.58;1.82;;;;;;;18.93;44.18;97099.84;1873117;76;25640;-80
2021/05/10 07:48:01;;;;;;;1.92;1.70;;;;;;;19.46;43.61;97090.79;1873052;76;25680;-81
2021/05/10 07:50:40;;;;;;;2.87;1.85;;;;;;;19.99;43.54;97088.52;1842480;76;25604;-80
2021/05/10 07:53:20;;;;;;;3.22;2.17;;;;;;;20.44;42.30;97089.73;1824764;76;25720;-81
2021/05/10 07:56:00;;;;;;;2.70;1.90;;;;;;;20.91;41.87;97089.72;1873083;76;25695;-81
2021/05/10 07:58:42;;;;;;;2.75;1.82;;;;;;;21.43;40.95;97086.88;1873047;76;25612;-80
2021/05/10 08:01:20;;;;;;;3.17;2.02;;;;;;;21.78;41.10;97078.84;1886439;76;25667;-81
2021/05/10 08:03:59;;;;;;;2.12;1.82;;;;;;;22.21;40.69;97083.34;1871770;76;25719;-82
2021/05/10 08:06:37;;;;;;;3.55;2.27;;;;;;;22.52;39.82;97079.63;1873043;76;25680;-81
2021/05/10 08:09:15;;;;;;;5.75;2.40;;;;;;;22.91;39.82;97071.67;1870204;76;25582;-81
2021/05/10 08:11:53;;;;;;;3.40;2.25;;;;;;;23.31;38.46;97070.19;1827595;76;25834;-80
2021/05/10 08:14:31;;;;;;;3.27;2.12;;;;;;;23.71;38.49;97071.45;1863444;76;25612;-81
2021/05/10 08:17:11;;;;;;;2.90;1.90;;;;;;;24.14;37.15;97068.44;1873108;76;25620;-80
2021/05/10 08:19:49;;;;;;;6.25;2.33;;;;;;;24.51;36.40;97070.99;1830895;76;25794;-81
2021/05/10 08:22:27;;;;;;;5.60;2.12;;;;;;;24.95;36.08;97070.86;1849935;74;25602;-80
2021/05/10 08:25:07;;;;;;;2.87;1.95;;;;;;;25.37;35.22;97062.64;1849199;76;25724;-81
2021/05/10 08:27:45;;;;;;;4.55;2.17;;;;;;;25.73;34.37;97057.03;1849174;76;25609;-82
2021/05/10 08:30:24;;;;;;;3.98;2.15;;;;;;;26.10;33.61;97052.97;1878772;74;26082;-81
2021/05/10 08:33:03;;;;;;;3.45;2.30;;;;;;;26.29;33.39;97052.75;1873129;76;26141;-81
2021/05/10 08:35:41;;;;;;;3.70;2.22;;;;;;;26.62;33.80;97051.77;1822097;76;25886;-81
2021/05/10 08:38:20;;;;;;;5.17;2.15;;;;;;;27.13;32.63;97052.41;1863005;76;25706;-82
2021/05/10 08:40:58;;;;;;;5.17;2.25;;;;;;;27.57;32.18;97044.30;1873199;76;25852;-82
2021/05/10 08:43:37;;;;;;;3.60;2.10;;;;;;;27.96;31.49;97033.49;1832526;76;25621;-84
2021/05/10 08:46:24;;;;;;;2.98;1.85;;;;;;;28.39;30.58;97037.46;1809935;78;25673;-82
2021/05/10 08:49:04;;;;;;;4.50;1.92;;;;;;;28.66;30.35;97043.09;1871574;76;25599;-82
2021/05/10 08:51:42;;;;;;;3.80;2.08;;;;;;;28.96;30.14;97040.55;1873010;76;25207;-81
2021/05/10 08:54:26;;;;;;;3.17;2.22;;;;;;;29.06;29.72;97030.17;1873465;76;25736;-81
2021/05/10 08:57:24;;;;;;;2.60;1.72;;;;;;;29.30;29.10;97040.02;1833089;77;25667;-81
2021/05/10 09:00:05;;;;;;;2.20;2.00;;;;;;;29.43;29.22;97028.39;1839429;76;25749;-82
2021/05/10 09:02:44;;;;;;;2.77;2.00;;;;;;;29.52;28.51;97024.36;1817129;76;25580;-83
2021/05/10 09:05:22;;;;;;;2.98;1.92;;;;;;;29.43;28.84;97027.00;1848823;76;25915;-81
2021/05/10 09:08:08;;;;;;;2.22;1.72;;;;;;;29.59;28.05;97025.17;1873160;76;25908;-81
2021/05/10 09:11:06;;;;;;;5.37;1.92;;;;;;;29.37;27.96;97016.08;1873189;76;25478;-82
2021/05/10 09:13:48;;;;;;;3.55;2.20;;;;;;;29.38;27.74;97011.33;1863822;75;25663;-82
2021/05/10 09:16:27;;;;;;;2.27;1.60;;;;;;;29.23;28.16;97007.19;1878691;74;25644;-82
2021/05/10 09:19:06;;;;;;;5.35;1.65;;;;;;;28.95;27.55;97005.59;1873103;76;25740;-81
2021/05/10 09:21:50;;;;;;;3.47;1.67;;;;;;;28.98;27.14;97005.48;1835359;75;25669;-82
2021/05/10 09:24:28;;;;;;;2.35;1.80;;;;;;;29.19;26.63;97005.45;1873034;76;26191;-81
2021/05/10 09:27:23;;;;;;;6.62;1.87;;;;;;;29.35;26.94;97005.84;1873040;76;25604;-81
2021/05/10 09:30:25;;;;;;;4.42;1.85;;;;;;;29.28;26.89;97013.94;1818653;76;25750;-81
2021/05/10 09:33:03;;;;;;;3.83;1.85;;;;;;;29.43;25.97;97009.74;1873269;76;25550;-81
2021/05/10 09:35:42;;;;;;;5.10;1.80;;;;;;;29.51;26.46;97001.88;1873087;76;25229;-82
2021/05/10 09:38:24;;;;;;;4.12;1.52;;;;;;;29.57;26.52;97003.30;1873062;76;25620;-82
2021/05/10 09:41:07;;;;;;;1.45;1.30;;;;;;;29.63;25.89;96999.13;1871647;76;25571;-81
2021/05/10 09:43:50;;;;;;;2.62;1.40;;;;;;;29.58;26.53;96999.36;1871978;76;25741;-81
2021/05/10 09:46:43;;;;;;;3.52;1.07;;;;;;;29.48;25.73;96996.19;1873091;76;25627;-81
2021/05/10 09:49:22;;;;;;;1.87;1.40;;;;;;;29.58;24.74;96992.41;1830501;76;25696;-82
2021/05/10 09:52:22;;;;;;;2.35;1.20;;;;;;;29.67;25.14;96993.70;1835297;76;25698;-82
2021/05/10 09:55:02;;;;;;;2.90;1.30;;;;;;;29.79;25.81;96996.50;1873133;76;25690;-81
2021/05/10 09:57:57;;;;;;;3.80;1.75;;;;;;;29.68;25.29;96997.52;1872944;76;25739;-82
2021/05/10 10:00:35;;;;;;;1.62;1.52;;;;;;;29.60;25.66;96998.99;1858700;76;25244;-81
2021/05/10 10:03:34;;;;;;;1.92;1.12;;;;;;;29.64;25.81;96994.38;1873127;76;25671;-81
2021/05/10 10:06:17;;;;;;;1.55;1.27;;;;;;;29.76;25.88;96985.24;1867242;74;26157;-82
2021/05/10 10:08:57;;;;;;;1.75;1.20;;;;;;;29.72;25.35;96985.92;1861005;76;25584;-82
2021/05/10 10:11:35;;;;;;;2.02;1.20;;;;;;;29.81;24.82;96978.07;1833309;76;25424;-81
2021/05/10 10:14:14;;;;;;;2.52;1.55;;;;;;;29.97;24.16;96984.59;1833865;76;25555;-82
2021/05/10 10:16:52;;;;;;;1.70;1.20;;;;;;;30.14;24.25;96988.55;1873955;76;25652;-81
2021/05/10 10:19:32;;;;;;;1.98;1.30;;;;;;;30.22;23.88;96980.65;1866084;76;25624;-81
2021/05/10 10:22:13;;;;;;;3.42;1.50;;;;;;;30.36;23.40;96982.50;1872983;76;25560;-83
2021/05/10 10:24:53;;;;;;;2.67;1.50;;;;;;;30.53;23.38;96984.80;1873005;76;26222;-81
2021/05/10 10:27:34;;;;;;;3.05;1.05;;;;;;;30.64;23.23;96984.58;1873175;76;26062;-82
2021/05/10 10:30:13;;;;;;;5.08;1.25;;;;;;;30.70;23.13;96989.55;1873348;76;25712;-81
2021/05/10 10:32:53;;;;;;;1.10;0.98;;;;;;;30.72;22.69;96992.80;1816748;76;25775;-81
2021/05/10 10:35:32;;;;;;;0.90;0.90;;;;;;;30.81;23.27;96988.47;1831216;76;25664;-81
2021/05/10 10:38:12;;;;;;;2.17;1.75;;;;;;;30.86;22.64;96982.66;1867585;76;25774;-83
2021/05/10 10:41:16;;;;;;;2.95;0.90;;;;;;;31.02;22.69;96984.94;1848554;76;25971;-82
2021/05/10 10:43:54;;;;;;;1.67;1.02;;;;;;;31.26;22.22;96986.03;1836959;76;25658;-80
2021/05/10 10:46:32;;;;;;;1.32;1.05;;;;;;;31.22;22.39;96979.53;1873237;76;25889;-81
2021/05/10 10:49:35;;;;;;;1.45;1.10;;;;;;;31.32;21.88;96979.02;1849094;76;25807;-81
2021/05/10 10:52:27;;;;;;;2.67;0.90;;;;;;;31.33;21.60;96975.06;1853445;76;25418;-83
2021/05/10 10:55:22;;;;;;;2.33;1.17;;;;;;;31.24;22.62;96971.62;1824168;76;25652;-83
2021/05/10 10:58:21;;;;;;;0.78;0.70;;;;;;;30.93;22.49;96970.31;1873152;75;25664;-83
2021/05/10 11:01:19;;;;;;;2.22;0.93;;;;;;;30.97;23.47;96979.60;1840779;76;25623;-83
2021/05/10 11:04:04;;;;;;;4.33;1.42;;;;;;;31.18;22.64;96964.67;1872227;76;25648;-82
2021/05/10 11:06:50;;;;;;;6.58;1.25;;;;;;;31.08;22.76;96965.97;1865535;76;25643;-82
2021/05/10 11:09:49;;;;;;;3.72;1.17;;;;;;;30.91;22.86;96969.88;1809434;76;25884;-82
2021/05/10 11:12:50;;;;;;;1.98;1.05;;;;;;;30.72;22.84;96969.69;1873012;76;25853;-84
2021/05/10 11:15:43;;;;;;;1.05;0.80;;;;;;;30.53;23.19;96968.94;1838429;76;25592;-82
2021/05/10 11:18:43;;;;;;;2.72;0.95;;;;;;;30.64;23.15;96969.26;1873203;76;25650;-83
2021/05/10 11:21:29;;;;;;;3.15;1.47;;;;;;;30.73;22.31;96957.39;1845902;74;25606;-83
2021/05/10 11:24:11;;;;;;;7.13;3.20;;;;;;;30.96;22.61;96961.25;1857326;76;27952;-81
2021/05/10 11:26:51;;;;;;;2.60;1.07;;;;;;;31.50;21.56;96954.64;1834256;76;25582;-82
2021/05/10 11:29:35;;;;;;;3.05;1.70;;;;;;;31.77;20.89;96951.56;1877594;74;25641;-82
2021/05/10 11:32:25;;;;;;;2.40;1.20;;;;;;;31.73;20.27;96954.05;1842697;76;25232;-84
2021/05/10 11:35:25;;;;;;;1.35;1.12;;;;;;;31.61;20.07;96947.95;1868148;76;25342;-84
2021/05/10 11:38:08;;;;;;;2.47;1.00;;;;;;;31.57;21.42;96944.23;1873138;76;25610;-83
2021/05/10 11:40:49;;;;;;;1.95;1.27;;;;;;;31.60;22.48;96936.55;1834245;76;25666;-83
2021/05/10 11:43:27;;;;;;;3.20;1.12;;;;;;;31.76;22.89;96932.41;1816056;76;25688;-83
2021/05/10 11:46:06;;;;;;;1.55;0.98;;;;;;;32.12;22.54;96929.91;1873227;76;25677;-83
2021/05/10 11:48:45;;;;;;;3.33;0.93;;;;;;;32.41;22.53;96931.39;1866049;76;25605;-83
2021/05/10 11:51:24;;;;;;;3.45;1.50;;;;;;;32.39;22.43;96928.95;1828763;75;25739;-83
2021/05/10 11:54:08;;;;;;;2.58;1.10;;;;;;;32.45;23.41;96928.91;1884923;74;25744;-84
2021/05/10 11:56:48;;;;;;;2.30;0.90;;;;;;;32.71;22.51;96930.27;1860288;76;25657;-82
2021/05/10 11:59:37;;;;;;;1.45;0.98;;;;;;;32.90;21.06;96931.09;1883681;74;25643;-83
2021/05/10 12:02:27;;;;;;;2.12;1.22;;;;;;;32.99;20.36;96925.27;1853027;74;25713;-83
2021/05/10 12:05:09;;;;;;;1.57;0.70;;;;;;;33.00;19.74;96915.72;1873243;76;25647;-86
2021/05/10 12:07:50;;;;;;;1.42;0.90;;;;;;;33.13;19.15;96916.36;1872164;76;25775;-84
2021/05/10 12:10:28;;;;;;;4.72;0.90;;;;;;;33.03;19.13;96912.78;1873118;76;25651;-89
2021/05/10 12:13:06;;;;;;;1.87;1.02;;;;;;;32.80;19.43;96916.91;1874410;76;25429;-85
2021/05/10 12:15:45;;;;;;;1.10;0.80;;;;;;;32.84;19.64;96913.61;1886588;76;25667;-84
2021/05/10 12:18:23;;;;;;;0.65;0.65;;;;;;;32.76;19.66;96915.42;1873119;76;25186;-84
2021/05/10 12:21:01;;;;;;;1.77;0.88;;;;;;;32.75;19.21;96918.59;1848521;76;26004;-88
2021/05/10 12:23:39;;;;;;;1.95;0.85;;;;;;;32.72;18.88;96919.34;1829933;76;25616;-86
2021/05/10 12:26:17;;;;;;;4.15;1.25;;;;;;;32.78;18.88;96908.08;1848995;76;25684;-86
2021/05/10 12:28:55;;;;;;;2.70;1.92;;;;;;;32.67;18.62;96909.81;1886635;74;25790;-84
2021/05/10 12:31:36;;;;;;;2.22;1.20;;;;;;;32.54;18.68;96911.34;1817102;76;25645;-83
2021/05/10 12:34:14;;;;;;;1.10;1.00;;;;;;;32.45;18.94;96906.56;1837497;76;25625;-82
2021/05/10 12:36:53;;;;;;;1.87;0.75;;;;;;;32.38;18.62;96911.97;1882150;76;25607;-83
2021/05/10 12:39:32;;;;;;;5.50;1.00;;;;;;;32.44;18.88;96909.72;1873078;76;26224;-83